sensor_id;sensor_type;location;lat;lon;timestamp;temperature;humidity
6948;DHT22;3513;47.664;9.162;2022-08-20T00:00:46;18.10;99.90
6948;DHT22;3513;47.664;9.162;2022-08-20T00:03:26;18.10;99.90
6948;DHT22;3513;47.664;9.162;2022-08-20T00:06:07;18.10;99.90
6948;DHT22;3513;47.664;9.162;2022-08-20T00:08:35;18.00;99.90
6948;DHT22;3513;47.664;9.162;2022-08-20T00:11:01;18.00;99.90
6948;DHT22;3513;47.664;9.162;2022-08-20T00:13:35;17.90;99.90
6948;DHT22;3513;47.664;9.162;2022-08-20T00:16:03;18.00;99.90
6948;DHT22;3513;47.664;9.162;2022-08-20T00:18:29;18.00;99.90
6948;DHT22;3513;47.664;9.162;2022-08-20T00:20:55;18.10;99.90
6948;DHT22;3513;47.664;9.162;2022-08-20T00:23:22;18.10;99.90
6948;DHT22;3513;47.664;9.162;2022-08-20T00:25:49;18.00;99.90
6948;DHT22;3513;47.664;9.162;2022-08-20T00:28:15;18.00;99.90
6948;DHT22;3513;47.664;9.162;2022-08-20T00:30:43;18.00;99.90
6948;DHT22;3513;47.664;9.162;2022-08-20T00:33:12;17.90;99.90
6948;DHT22;3513;47.664;9.162;2022-08-20T00:35:45;18.00;99.90
6948;DHT22;3513;47.664;9.162;2022-08-20T00:38:11;18.00;99.90
6948;DHT22;3513;47.664;9.162;2022-08-20T00:40:45;17.90;99.90
6948;DHT22;3513;47.664;9.162;2022-08-20T00:43:40;17.90;99.90
6948;DHT22;3513;47.664;9.162;2022-08-20T00:46:10;17.90;99.90
6948;DHT22;3513;47.664;9.162;2022-08-20T00:48:40;17.90;99.90
6948;DHT22;3513;47.664;9.162;2022-08-20T00:51:11;17.90;99.90
6948;DHT22;3513;47.664;9.162;2022-08-20T00:53:40;18.00;99.90
6948;DHT22;3513;47.664;9.162;2022-08-20T00:56:07;18.00;99.90
6948;DHT22;3513;47.664;9.162;2022-08-20T00:58:35;17.90;99.90
6948;DHT22;3513;47.664;9.162;2022-08-20T01:01:02;17.80;99.90
6948;DHT22;3513;47.664;9.162;2022-08-20T01:03:30;17.80;99.90
6948;DHT22;3513;47.664;9.162;2022-08-20T01:05:56;17.90;99.90
6948;DHT22;3513;47.664;9.162;2022-08-20T01:08:23;17.80;99.90
6948;DHT22;3513;47.664;9.162;2022-08-20T01:10:51;17.80;99.90
6948;DHT22;3513;47.664;9.162;2022-08-20T01:13:33;17.70;99.90
6948;DHT22;3513;47.664;9.162;2022-08-20T01:16:01;17.70;99.90
6948;DHT22;3513;47.664;9.162;2022-08-20T01:18:29;17.70;99.90
6948;DHT22;3513;47.664;9.162;2022-08-20T01:20:58;17.60;99.90
6948;DHT22;3513;47.664;9.162;2022-08-20T01:26:12;17.50;99.90
6948;DHT22;3513;47.664;9.162;2022-08-20T01:28:39;17.40;99.90
6948;DHT22;3513;47.664;9.162;2022-08-20T01:31:11;17.40;99.90
6948;DHT22;3513;47.664;9.162;2022-08-20T01:33:38;17.40;99.90
6948;DHT22;3513;47.664;9.162;2022-08-20T01:36:05;17.50;99.90
6948;DHT22;3513;47.664;9.162;2022-08-20T01:38:31;17.40;99.90
6948;DHT22;3513;47.664;9.162;2022-08-20T01:43:48;17.30;99.90
6948;DHT22;3513;47.664;9.162;2022-08-20T01:46:16;17.30;99.90
6948;DHT22;3513;47.664;9.162;2022-08-20T01:48:42;17.30;99.90
6948;DHT22;3513;47.664;9.162;2022-08-20T01:51:15;17.40;99.90
6948;DHT22;3513;47.664;9.162;2022-08-20T01:53:45;18.10;99.90
6948;DHT22;3513;47.664;9.162;2022-08-20T01:56:14;17.40;99.90
6948;DHT22;3513;47.664;9.162;2022-08-20T01:58:44;17.40;99.90
6948;DHT22;3513;47.664;9.162;2022-08-20T02:03:52;17.40;99.90
6948;DHT22;3513;47.664;9.162;2022-08-20T02:06:19;17.30;99.90
6948;DHT22;3513;47.664;9.162;2022-08-20T02:08:50;17.20;99.90
6948;DHT22;3513;47.664;9.162;2022-08-20T02:11:17;17.20;99.90
6948;DHT22;3513;47.664;9.162;2022-08-20T02:13:42;17.20;99.90
6948;DHT22;3513;47.664;9.162;2022-08-20T02:16:08;17.30;99.90
6948;DHT22;3513;47.664;9.162;2022-08-20T02:18:34;17.30;99.90
6948;DHT22;3513;47.664;9.162;2022-08-20T02:21:00;18.50;99.90
6948;DHT22;3513;47.664;9.162;2022-08-20T02:23:26;17.30;99.90
6948;DHT22;3513;47.664;9.162;2022-08-20T02:25:52;17.40;99.90
6948;DHT22;3513;47.664;9.162;2022-08-20T02:28:18;17.40;99.90
6948;DHT22;3513;47.664;9.162;2022-08-20T02:30:48;17.30;99.90
6948;DHT22;3513;47.664;9.162;2022-08-20T02:33:16;17.30;99.90
6948;DHT22;3513;47.664;9.162;2022-08-20T02:35:46;17.30;99.90
6948;DHT22;3513;47.664;9.162;2022-08-20T02:38:12;17.40;99.90
6948;DHT22;3513;47.664;9.162;2022-08-20T02:40:38;17.40;99.90
6948;DHT22;3513;47.664;9.162;2022-08-20T02:43:04;17.40;99.90
6948;DHT22;3513;47.664;9.162;2022-08-20T02:45:32;17.30;99.90
6948;DHT22;3513;47.664;9.162;2022-08-20T02:48:01;17.40;99.90
6948;DHT22;3513;47.664;9.162;2022-08-20T02:50:28;19.90;99.90
6948;DHT22;3513;47.664;9.162;2022-08-20T02:52:55;17.30;99.90
6948;DHT22;3513;47.664;9.162;2022-08-20T02:55:22;17.30;99.90
6948;DHT22;3513;47.664;9.162;2022-08-20T02:57:47;17.20;99.90
6948;DHT22;3513;47.664;9.162;2022-08-20T03:00:16;17.10;99.90
6948;DHT22;3513;47.664;9.162;2022-08-20T03:02:44;17.00;99.90
6948;DHT22;3513;47.664;9.162;2022-08-20T03:05:10;17.00;99.90
6948;DHT22;3513;47.664;9.162;2022-08-20T03:07:42;16.90;99.90
6948;DHT22;3513;47.664;9.162;2022-08-20T03:10:08;16.90;99.90
6948;DHT22;3513;47.664;9.162;2022-08-20T03:12:34;16.90;99.90
6948;DHT22;3513;47.664;9.162;2022-08-20T03:15:00;16.90;99.90
6948;DHT22;3513;47.664;9.162;2022-08-20T03:17:26;16.90;99.90
6948;DHT22;3513;47.664;9.162;2022-08-20T03:19:51;16.90;99.90
6948;DHT22;3513;47.664;9.162;2022-08-20T03:22:17;16.90;99.90
6948;DHT22;3513;47.664;9.162;2022-08-20T03:24:43;16.90;99.90
6948;DHT22;3513;47.664;9.162;2022-08-20T03:27:11;17.00;99.90
6948;DHT22;3513;47.664;9.162;2022-08-20T03:29:37;17.00;99.90
6948;DHT22;3513;47.664;9.162;2022-08-20T03:32:03;17.00;99.90
6948;DHT22;3513;47.664;9.162;2022-08-20T03:34:28;16.90;99.90
6948;DHT22;3513;47.664;9.162;2022-08-20T03:36:54;16.70;99.90
6948;DHT22;3513;47.664;9.162;2022-08-20T03:39:20;16.80;99.90
6948;DHT22;3513;47.664;9.162;2022-08-20T03:41:46;16.70;99.90
6948;DHT22;3513;47.664;9.162;2022-08-20T03:44:12;16.70;99.90
6948;DHT22;3513;47.664;9.162;2022-08-20T03:46:37;16.70;99.90
6948;DHT22;3513;47.664;9.162;2022-08-20T03:49:04;16.60;99.90
6948;DHT22;3513;47.664;9.162;2022-08-20T03:51:30;16.50;99.90
6948;DHT22;3513;47.664;9.162;2022-08-20T03:53:57;16.40;99.90
6948;DHT22;3513;47.664;9.162;2022-08-20T03:56:23;16.40;99.90
6948;DHT22;3513;47.664;9.162;2022-08-20T03:58:49;16.40;99.90
6948;DHT22;3513;47.664;9.162;2022-08-20T04:01:14;16.40;99.90
6948;DHT22;3513;47.664;9.162;2022-08-20T04:03:40;16.40;99.90
6948;DHT22;3513;47.664;9.162;2022-08-20T04:06:06;16.40;99.90
6948;DHT22;3513;47.664;9.162;2022-08-20T04:08:32;16.30;99.90
6948;DHT22;3513;47.664;9.162;2022-08-20T04:10:58;16.20;99.90
6948;DHT22;3513;47.664;9.162;2022-08-20T04:13:26;16.20;99.90
6948;DHT22;3513;47.664;9.162;2022-08-20T04:15:53;16.20;99.90
6948;DHT22;3513;47.664;9.162;2022-08-20T04:18:21;16.20;99.90
6948;DHT22;3513;47.664;9.162;2022-08-20T04:20:49;16.20;99.90
6948;DHT22;3513;47.664;9.162;2022-08-20T04:23:15;16.20;99.90
6948;DHT22;3513;47.664;9.162;2022-08-20T04:25:44;16.20;99.90
6948;DHT22;3513;47.664;9.162;2022-08-20T04:28:13;16.20;99.90
6948;DHT22;3513;47.664;9.162;2022-08-20T04:30:39;16.20;99.90
6948;DHT22;3513;47.664;9.162;2022-08-20T04:33:07;16.10;99.90
6948;DHT22;3513;47.664;9.162;2022-08-20T04:35:32;16.10;99.90
6948;DHT22;3513;47.664;9.162;2022-08-20T04:38:08;16.10;99.90
6948;DHT22;3513;47.664;9.162;2022-08-20T04:40:35;16.10;99.90
6948;DHT22;3513;47.664;9.162;2022-08-20T04:43:24;16.10;99.90
6948;DHT22;3513;47.664;9.162;2022-08-20T04:45:51;16.20;99.90
6948;DHT22;3513;47.664;9.162;2022-08-20T04:48:19;16.30;99.90
6948;DHT22;3513;47.664;9.162;2022-08-20T04:50:45;16.20;99.90
6948;DHT22;3513;47.664;9.162;2022-08-20T04:53:13;16.30;99.90
6948;DHT22;3513;47.664;9.162;2022-08-20T04:55:43;16.30;99.90
6948;DHT22;3513;47.664;9.162;2022-08-20T04:58:16;16.40;99.90
6948;DHT22;3513;47.664;9.162;2022-08-20T05:00:50;16.40;99.90
6948;DHT22;3513;47.664;9.162;2022-08-20T05:03:18;16.40;99.90
6948;DHT22;3513;47.664;9.162;2022-08-20T05:05:45;16.40;99.90
6948;DHT22;3513;47.664;9.162;2022-08-20T05:08:12;16.40;99.90
6948;DHT22;3513;47.664;9.162;2022-08-20T05:10:39;16.50;99.90
6948;DHT22;3513;47.664;9.162;2022-08-20T05:13:05;16.50;99.90
6948;DHT22;3513;47.664;9.162;2022-08-20T05:15:32;16.50;99.90
6948;DHT22;3513;47.664;9.162;2022-08-20T05:18:00;16.50;99.90
6948;DHT22;3513;47.664;9.162;2022-08-20T05:20:31;16.60;99.90
6948;DHT22;3513;47.664;9.162;2022-08-20T05:22:59;16.60;99.90
6948;DHT22;3513;47.664;9.162;2022-08-20T05:25:26;16.60;99.90
6948;DHT22;3513;47.664;9.162;2022-08-20T05:28:04;16.60;99.90
6948;DHT22;3513;47.664;9.162;2022-08-20T05:30:34;16.70;99.90
6948;DHT22;3513;47.664;9.162;2022-08-20T05:33:01;16.80;99.90
6948;DHT22;3513;47.664;9.162;2022-08-20T05:35:28;16.80;99.90
6948;DHT22;3513;47.664;9.162;2022-08-20T05:37:54;16.90;99.90
6948;DHT22;3513;47.664;9.162;2022-08-20T05:40:22;16.90;99.90
6948;DHT22;3513;47.664;9.162;2022-08-20T05:42:48;17.00;99.90
6948;DHT22;3513;47.664;9.162;2022-08-20T05:45:14;17.00;99.90
6948;DHT22;3513;47.664;9.162;2022-08-20T05:47:41;17.00;99.90
6948;DHT22;3513;47.664;9.162;2022-08-20T05:50:08;17.00;99.90
6948;DHT22;3513;47.664;9.162;2022-08-20T05:52:35;17.00;99.90
6948;DHT22;3513;47.664;9.162;2022-08-20T05:55:03;17.10;99.90
6948;DHT22;3513;47.664;9.162;2022-08-20T05:57:30;17.10;99.90
6948;DHT22;3513;47.664;9.162;2022-08-20T05:59:57;17.10;99.90
6948;DHT22;3513;47.664;9.162;2022-08-20T06:02:23;17.20;99.90
6948;DHT22;3513;47.664;9.162;2022-08-20T06:05:07;17.20;99.90
6948;DHT22;3513;47.664;9.162;2022-08-20T06:07:33;17.30;99.90
6948;DHT22;3513;47.664;9.162;2022-08-20T06:09:59;17.30;99.90
6948;DHT22;3513;47.664;9.162;2022-08-20T06:12:25;17.30;99.90
6948;DHT22;3513;47.664;9.162;2022-08-20T06:14:51;17.30;99.90
6948;DHT22;3513;47.664;9.162;2022-08-20T06:17:17;17.40;99.90
6948;DHT22;3513;47.664;9.162;2022-08-20T06:19:45;17.60;99.90
6948;DHT22;3513;47.664;9.162;2022-08-20T06:22:12;17.70;99.90
6948;DHT22;3513;47.664;9.162;2022-08-20T06:24:38;17.80;99.90
6948;DHT22;3513;47.664;9.162;2022-08-20T06:27:05;17.90;99.90
6948;DHT22;3513;47.664;9.162;2022-08-20T06:29:30;17.90;99.90
6948;DHT22;3513;47.664;9.162;2022-08-20T06:32:00;17.90;99.90
6948;DHT22;3513;47.664;9.162;2022-08-20T06:34:26;17.90;99.90
6948;DHT22;3513;47.664;9.162;2022-08-20T06:36:53;18.00;99.90
6948;DHT22;3513;47.664;9.162;2022-08-20T06:39:20;18.00;99.90
6948;DHT22;3513;47.664;9.162;2022-08-20T06:41:45;18.20;99.90
6948;DHT22;3513;47.664;9.162;2022-08-20T06:44:11;18.30;99.90
6948;DHT22;3513;47.664;9.162;2022-08-20T06:46:37;18.30;99.90
6948;DHT22;3513;47.664;9.162;2022-08-20T06:49:04;18.40;99.90
6948;DHT22;3513;47.664;9.162;2022-08-20T06:51:30;18.50;99.90
6948;DHT22;3513;47.664;9.162;2022-08-20T06:53:56;18.60;99.90
6948;DHT22;3513;47.664;9.162;2022-08-20T06:56:22;18.70;99.90
6948;DHT22;3513;47.664;9.162;2022-08-20T06:58:47;18.80;99.90
6948;DHT22;3513;47.664;9.162;2022-08-20T07:01:14;19.00;99.90
6948;DHT22;3513;47.664;9.162;2022-08-20T07:03:42;19.10;99.90
6948;DHT22;3513;47.664;9.162;2022-08-20T07:06:08;19.20;99.90
6948;DHT22;3513;47.664;9.162;2022-08-20T07:08:34;19.20;99.90
6948;DHT22;3513;47.664;9.162;2022-08-20T07:11:00;19.30;99.90
6948;DHT22;3513;47.664;9.162;2022-08-20T07:13:27;19.40;99.90
6948;DHT22;3513;47.664;9.162;2022-08-20T07:15:53;19.50;99.90
6948;DHT22;3513;47.664;9.162;2022-08-20T07:18:20;19.60;99.90
6948;DHT22;3513;47.664;9.162;2022-08-20T07:20:46;19.70;99.90
6948;DHT22;3513;47.664;9.162;2022-08-20T07:23:12;19.70;99.90
6948;DHT22;3513;47.664;9.162;2022-08-20T07:25:40;19.80;99.90
6948;DHT22;3513;47.664;9.162;2022-08-20T07:28:14;19.90;99.90
6948;DHT22;3513;47.664;9.162;2022-08-20T07:30:41;20.00;99.90
6948;DHT22;3513;47.664;9.162;2022-08-20T07:33:27;20.10;99.90
6948;DHT22;3513;47.664;9.162;2022-08-20T07:35:53;20.10;99.90
6948;DHT22;3513;47.664;9.162;2022-08-20T07:38:22;20.20;99.90
6948;DHT22;3513;47.664;9.162;2022-08-20T07:40:53;20.30;99.90
6948;DHT22;3513;47.664;9.162;2022-08-20T07:43:20;20.40;99.90
6948;DHT22;3513;47.664;9.162;2022-08-20T07:45:49;20.40;99.90
6948;DHT22;3513;47.664;9.162;2022-08-20T07:48:16;20.40;99.90
6948;DHT22;3513;47.664;9.162;2022-08-20T07:50:42;20.60;99.90
6948;DHT22;3513;47.664;9.162;2022-08-20T07:53:08;20.60;99.90
6948;DHT22;3513;47.664;9.162;2022-08-20T07:55:34;20.40;99.90
6948;DHT22;3513;47.664;9.162;2022-08-20T07:58:07;20.30;99.90
6948;DHT22;3513;47.664;9.162;2022-08-20T08:00:33;20.10;99.90
6948;DHT22;3513;47.664;9.162;2022-08-20T08:02:58;20.00;99.90
6948;DHT22;3513;47.664;9.162;2022-08-20T08:05:24;20.00;99.90
6948;DHT22;3513;47.664;9.162;2022-08-20T08:07:50;19.90;99.90
6948;DHT22;3513;47.664;9.162;2022-08-20T08:10:19;20.00;99.90
6948;DHT22;3513;47.664;9.162;2022-08-20T08:12:51;20.00;99.90
6948;DHT22;3513;47.664;9.162;2022-08-20T08:15:26;20.00;99.90
6948;DHT22;3513;47.664;9.162;2022-08-20T08:17:54;20.10;99.90
6948;DHT22;3513;47.664;9.162;2022-08-20T08:20:23;20.30;99.90
6948;DHT22;3513;47.664;9.162;2022-08-20T08:22:50;20.40;99.90
6948;DHT22;3513;47.664;9.162;2022-08-20T08:25:16;20.40;99.90
6948;DHT22;3513;47.664;9.162;2022-08-20T08:27:43;20.40;99.90
6948;DHT22;3513;47.664;9.162;2022-08-20T08:30:11;20.40;99.90
6948;DHT22;3513;47.664;9.162;2022-08-20T08:32:38;20.40;99.90
6948;DHT22;3513;47.664;9.162;2022-08-20T08:35:27;20.40;99.90
6948;DHT22;3513;47.664;9.162;2022-08-20T08:37:53;20.40;99.90
6948;DHT22;3513;47.664;9.162;2022-08-20T08:40:20;20.30;99.90
6948;DHT22;3513;47.664;9.162;2022-08-20T08:42:50;20.30;99.90
6948;DHT22;3513;47.664;9.162;2022-08-20T08:45:20;20.50;99.90
6948;DHT22;3513;47.664;9.162;2022-08-20T08:47:46;20.70;99.90
6948;DHT22;3513;47.664;9.162;2022-08-20T08:50:23;20.80;99.90
6948;DHT22;3513;47.664;9.162;2022-08-20T08:52:52;20.70;99.90
6948;DHT22;3513;47.664;9.162;2022-08-20T08:55:19;20.80;99.90
6948;DHT22;3513;47.664;9.162;2022-08-20T08:57:47;20.90;99.90
6948;DHT22;3513;47.664;9.162;2022-08-20T09:00:17;20.90;99.90
6948;DHT22;3513;47.664;9.162;2022-08-20T09:03:07;21.00;99.90
6948;DHT22;3513;47.664;9.162;2022-08-20T09:05:41;21.00;99.90
6948;DHT22;3513;47.664;9.162;2022-08-20T09:08:11;21.10;99.90
6948;DHT22;3513;47.664;9.162;2022-08-20T09:10:37;21.10;99.90
6948;DHT22;3513;47.664;9.162;2022-08-20T09:13:04;21.00;99.90
6948;DHT22;3513;47.664;9.162;2022-08-20T09:15:30;21.00;99.90
6948;DHT22;3513;47.664;9.162;2022-08-20T09:17:56;21.00;99.90
6948;DHT22;3513;47.664;9.162;2022-08-20T09:20:22;21.00;99.90
6948;DHT22;3513;47.664;9.162;2022-08-20T09:22:48;21.00;99.90
6948;DHT22;3513;47.664;9.162;2022-08-20T09:25:15;21.00;99.90
6948;DHT22;3513;47.664;9.162;2022-08-20T09:27:40;21.20;99.90
6948;DHT22;3513;47.664;9.162;2022-08-20T09:30:06;21.40;99.90
6948;DHT22;3513;47.664;9.162;2022-08-20T09:32:32;21.60;99.90
6948;DHT22;3513;47.664;9.162;2022-08-20T09:34:58;21.80;99.90
6948;DHT22;3513;47.664;9.162;2022-08-20T09:37:26;22.10;99.90
6948;DHT22;3513;47.664;9.162;2022-08-20T09:39:52;22.30;99.90
6948;DHT22;3513;47.664;9.162;2022-08-20T09:42:24;22.30;99.90
6948;DHT22;3513;47.664;9.162;2022-08-20T09:44:51;22.20;99.90
6948;DHT22;3513;47.664;9.162;2022-08-20T09:47:17;22.10;99.90
6948;DHT22;3513;47.664;9.162;2022-08-20T09:49:43;22.00;99.90
6948;DHT22;3513;47.664;9.162;2022-08-20T09:52:25;21.70;99.90
6948;DHT22;3513;47.664;9.162;2022-08-20T09:54:53;21.60;99.90
6948;DHT22;3513;47.664;9.162;2022-08-20T09:57:19;21.50;99.90
6948;DHT22;3513;47.664;9.162;2022-08-20T09:59:51;21.40;99.90
6948;DHT22;3513;47.664;9.162;2022-08-20T10:02:17;21.30;99.90
6948;DHT22;3513;47.664;9.162;2022-08-20T10:04:43;21.10;99.90
6948;DHT22;3513;47.664;9.162;2022-08-20T10:07:09;21.10;99.90
6948;DHT22;3513;47.664;9.162;2022-08-20T10:09:35;21.10;99.90
6948;DHT22;3513;47.664;9.162;2022-08-20T10:12:02;20.90;99.90
6948;DHT22;3513;47.664;9.162;2022-08-20T10:14:27;20.90;99.90
6948;DHT22;3513;47.664;9.162;2022-08-20T10:16:57;20.90;99.90
6948;DHT22;3513;47.664;9.162;2022-08-20T10:19:24;21.00;99.90
6948;DHT22;3513;47.664;9.162;2022-08-20T10:21:51;21.10;99.90
6948;DHT22;3513;47.664;9.162;2022-08-20T10:24:17;21.20;99.90
6948;DHT22;3513;47.664;9.162;2022-08-20T10:26:44;21.30;99.90
6948;DHT22;3513;47.664;9.162;2022-08-20T10:29:09;21.50;99.90
6948;DHT22;3513;47.664;9.162;2022-08-20T10:31:35;21.50;99.90
6948;DHT22;3513;47.664;9.162;2022-08-20T10:34:01;21.60;99.90
6948;DHT22;3513;47.664;9.162;2022-08-20T10:36:26;21.70;99.90
6948;DHT22;3513;47.664;9.162;2022-08-20T10:38:52;21.70;99.90
6948;DHT22;3513;47.664;9.162;2022-08-20T10:41:17;21.80;99.90
6948;DHT22;3513;47.664;9.162;2022-08-20T10:43:44;21.80;99.90
6948;DHT22;3513;47.664;9.162;2022-08-20T10:46:10;21.70;99.90
6948;DHT22;3513;47.664;9.162;2022-08-20T10:48:36;21.70;99.90
6948;DHT22;3513;47.664;9.162;2022-08-20T10:51:01;21.70;99.90
6948;DHT22;3513;47.664;9.162;2022-08-20T10:53:27;21.70;99.90
6948;DHT22;3513;47.664;9.162;2022-08-20T10:55:53;21.60;99.90
6948;DHT22;3513;47.664;9.162;2022-08-20T10:58:19;21.70;99.90
6948;DHT22;3513;47.664;9.162;2022-08-20T11:00:45;21.80;99.90
6948;DHT22;3513;47.664;9.162;2022-08-20T11:03:11;21.80;99.90
6948;DHT22;3513;47.664;9.162;2022-08-20T11:05:37;21.80;99.90
6948;DHT22;3513;47.664;9.162;2022-08-20T11:08:04;21.80;99.90
6948;DHT22;3513;47.664;9.162;2022-08-20T11:10:32;21.70;99.90
6948;DHT22;3513;47.664;9.162;2022-08-20T11:13:02;21.70;99.90
6948;DHT22;3513;47.664;9.162;2022-08-20T11:15:28;21.70;99.90
6948;DHT22;3513;47.664;9.162;2022-08-20T11:17:54;21.70;99.90
6948;DHT22;3513;47.664;9.162;2022-08-20T11:20:22;21.70;99.90
6948;DHT22;3513;47.664;9.162;2022-08-20T11:22:50;21.70;99.90
6948;DHT22;3513;47.664;9.162;2022-08-20T11:25:17;21.70;99.90
6948;DHT22;3513;47.664;9.162;2022-08-20T11:27:45;21.70;99.90
6948;DHT22;3513;47.664;9.162;2022-08-20T11:30:20;21.70;99.90
6948;DHT22;3513;47.664;9.162;2022-08-20T11:32:46;21.70;99.90
6948;DHT22;3513;47.664;9.162;2022-08-20T11:35:11;21.80;99.90
6948;DHT22;3513;47.664;9.162;2022-08-20T11:37:38;21.80;99.90
6948;DHT22;3513;47.664;9.162;2022-08-20T11:40:05;21.80;99.90
6948;DHT22;3513;47.664;9.162;2022-08-20T11:42:32;21.80;99.90
6948;DHT22;3513;47.664;9.162;2022-08-20T11:44:59;21.70;99.90
6948;DHT22;3513;47.664;9.162;2022-08-20T11:47:27;21.70;99.90
6948;DHT22;3513;47.664;9.162;2022-08-20T11:49:58;21.60;99.90
6948;DHT22;3513;47.664;9.162;2022-08-20T11:52:25;21.60;99.90
6948;DHT22;3513;47.664;9.162;2022-08-20T11:54:51;21.90;99.90
6948;DHT22;3513;47.664;9.162;2022-08-20T11:57:22;22.00;99.90
6948;DHT22;3513;47.664;9.162;2022-08-20T11:59:52;22.20;99.90
6948;DHT22;3513;47.664;9.162;2022-08-20T12:02:19;22.60;99.90
6948;DHT22;3513;47.664;9.162;2022-08-20T12:04:45;22.80;99.50
6948;DHT22;3513;47.664;9.162;2022-08-20T12:07:16;22.90;99.90
6948;DHT22;3513;47.664;9.162;2022-08-20T12:09:42;23.00;99.90
6948;DHT22;3513;47.664;9.162;2022-08-20T12:12:08;23.20;99.90
6948;DHT22;3513;47.664;9.162;2022-08-20T12:14:34;23.40;99.40
6948;DHT22;3513;47.664;9.162;2022-08-20T12:17:12;23.50;98.90
6948;DHT22;3513;47.664;9.162;2022-08-20T12:19:40;23.50;98.50
6948;DHT22;3513;47.664;9.162;2022-08-20T12:22:06;23.40;98.70
6948;DHT22;3513;47.664;9.162;2022-08-20T12:24:32;23.40;98.40
6948;DHT22;3513;47.664;9.162;2022-08-20T12:27:12;23.30;98.60
6948;DHT22;3513;47.664;9.162;2022-08-20T12:29:41;23.20;98.30
6948;DHT22;3513;47.664;9.162;2022-08-20T12:32:07;23.00;99.20
6948;DHT22;3513;47.664;9.162;2022-08-20T12:34:34;22.80;99.70
6948;DHT22;3513;47.664;9.162;2022-08-20T12:37:07;22.90;99.50
6948;DHT22;3513;47.664;9.162;2022-08-20T12:39:33;22.80;99.90
6948;DHT22;3513;47.664;9.162;2022-08-20T12:42:00;22.70;99.90
6948;DHT22;3513;47.664;9.162;2022-08-20T12:44:28;22.50;99.90
6948;DHT22;3513;47.664;9.162;2022-08-20T12:47:15;22.50;99.90
6948;DHT22;3513;47.664;9.162;2022-08-20T12:49:43;22.40;99.90
6948;DHT22;3513;47.664;9.162;2022-08-20T12:52:11;22.40;99.90
6948;DHT22;3513;47.664;9.162;2022-08-20T12:54:37;22.50;99.90
6948;DHT22;3513;47.664;9.162;2022-08-20T12:57:03;22.80;99.90
6948;DHT22;3513;47.664;9.162;2022-08-20T12:59:30;22.90;99.90
6948;DHT22;3513;47.664;9.162;2022-08-20T13:01:56;23.10;99.90
6948;DHT22;3513;47.664;9.162;2022-08-20T13:04:22;23.30;99.90
6948;DHT22;3513;47.664;9.162;2022-08-20T13:06:47;23.50;99.90
6948;DHT22;3513;47.664;9.162;2022-08-20T13:09:14;23.70;99.60
6948;DHT22;3513;47.664;9.162;2022-08-20T13:11:39;23.90;98.00
6948;DHT22;3513;47.664;9.162;2022-08-20T13:14:05;24.00;98.50
6948;DHT22;3513;47.664;9.162;2022-08-20T13:16:31;24.10;99.30
6948;DHT22;3513;47.664;9.162;2022-08-20T13:18:57;24.30;99.10
6948;DHT22;3513;47.664;9.162;2022-08-20T13:21:22;24.80;98.30
6948;DHT22;3513;47.664;9.162;2022-08-20T13:23:48;25.10;94.80
6948;DHT22;3513;47.664;9.162;2022-08-20T13:26:14;25.30;96.50
6948;DHT22;3513;47.664;9.162;2022-08-20T13:28:39;25.60;94.90
6948;DHT22;3513;47.664;9.162;2022-08-20T13:31:05;25.60;93.20
6948;DHT22;3513;47.664;9.162;2022-08-20T13:33:31;25.40;92.90
6948;DHT22;3513;47.664;9.162;2022-08-20T13:35:56;25.40;95.10
6948;DHT22;3513;47.664;9.162;2022-08-20T13:38:22;25.40;95.00
6948;DHT22;3513;47.664;9.162;2022-08-20T13:40:48;25.30;94.20
6948;DHT22;3513;47.664;9.162;2022-08-20T13:43:14;25.20;95.50
6948;DHT22;3513;47.664;9.162;2022-08-20T13:45:40;25.10;94.90
6948;DHT22;3513;47.664;9.162;2022-08-20T13:48:06;24.90;95.20
6948;DHT22;3513;47.664;9.162;2022-08-20T13:50:32;24.70;95.60
6948;DHT22;3513;47.664;9.162;2022-08-20T13:52:58;24.60;95.60
6948;DHT22;3513;47.664;9.162;2022-08-20T13:55:25;24.30;95.20
6948;DHT22;3513;47.664;9.162;2022-08-20T13:57:52;24.00;95.40
6948;DHT22;3513;47.664;9.162;2022-08-20T14:00:27;23.60;95.60
6948;DHT22;3513;47.664;9.162;2022-08-20T14:02:54;23.40;96.50
6948;DHT22;3513;47.664;9.162;2022-08-20T14:05:20;23.30;97.40
6948;DHT22;3513;47.664;9.162;2022-08-20T14:07:47;22.80;98.00
6948;DHT22;3513;47.664;9.162;2022-08-20T14:10:19;22.10;99.80
6948;DHT22;3513;47.664;9.162;2022-08-20T14:12:46;21.90;99.90
6948;DHT22;3513;47.664;9.162;2022-08-20T14:15:12;21.60;99.90
6948;DHT22;3513;47.664;9.162;2022-08-20T14:17:41;21.50;99.90
6948;DHT22;3513;47.664;9.162;2022-08-20T14:20:15;21.20;99.90
6948;DHT22;3513;47.664;9.162;2022-08-20T14:22:41;21.00;99.90
6948;DHT22;3513;47.664;9.162;2022-08-20T14:25:09;20.60;99.90
6948;DHT22;3513;47.664;9.162;2022-08-20T14:27:36;20.40;99.90
6948;DHT22;3513;47.664;9.162;2022-08-20T14:30:03;20.20;99.90
6948;DHT22;3513;47.664;9.162;2022-08-20T14:32:29;20.00;99.90
6948;DHT22;3513;47.664;9.162;2022-08-20T14:34:55;20.00;99.90
6948;DHT22;3513;47.664;9.162;2022-08-20T14:37:29;20.00;99.90
6948;DHT22;3513;47.664;9.162;2022-08-20T14:39:56;20.00;99.90
6948;DHT22;3513;47.664;9.162;2022-08-20T14:42:23;20.00;99.90
6948;DHT22;3513;47.664;9.162;2022-08-20T14:44:51;20.10;99.90
6948;DHT22;3513;47.664;9.162;2022-08-20T14:47:20;20.10;99.90
6948;DHT22;3513;47.664;9.162;2022-08-20T14:49:48;20.20;99.90
6948;DHT22;3513;47.664;9.162;2022-08-20T14:52:14;20.30;99.90
6948;DHT22;3513;47.664;9.162;2022-08-20T14:54:41;20.50;99.90
6948;DHT22;3513;47.664;9.162;2022-08-20T14:57:07;20.60;99.90
6948;DHT22;3513;47.664;9.162;2022-08-20T14:59:33;20.90;99.90
6948;DHT22;3513;47.664;9.162;2022-08-20T15:01:59;21.00;99.90
6948;DHT22;3513;47.664;9.162;2022-08-20T15:04:25;21.20;99.90
6948;DHT22;3513;47.664;9.162;2022-08-20T15:06:51;21.20;99.90
6948;DHT22;3513;47.664;9.162;2022-08-20T15:09:17;21.20;99.90
6948;DHT22;3513;47.664;9.162;2022-08-20T15:11:43;21.00;99.90
6948;DHT22;3513;47.664;9.162;2022-08-20T15:14:09;20.90;99.90
6948;DHT22;3513;47.664;9.162;2022-08-20T15:16:35;20.90;99.90
6948;DHT22;3513;47.664;9.162;2022-08-20T15:19:01;20.90;99.90
6948;DHT22;3513;47.664;9.162;2022-08-20T15:21:27;20.90;99.90
6948;DHT22;3513;47.664;9.162;2022-08-20T15:23:53;20.80;99.90
6948;DHT22;3513;47.664;9.162;2022-08-20T15:26:18;20.80;99.90
6948;DHT22;3513;47.664;9.162;2022-08-20T15:28:44;20.80;99.90
6948;DHT22;3513;47.664;9.162;2022-08-20T15:31:11;20.70;99.90
6948;DHT22;3513;47.664;9.162;2022-08-20T15:33:38;20.60;99.90
6948;DHT22;3513;47.664;9.162;2022-08-20T15:36:05;20.40;99.90
6948;DHT22;3513;47.664;9.162;2022-08-20T15:38:32;21.40;99.90
6948;DHT22;3513;47.664;9.162;2022-08-20T15:40:58;20.50;99.90
6948;DHT22;3513;47.664;9.162;2022-08-20T15:43:29;20.60;99.90
6948;DHT22;3513;47.664;9.162;2022-08-20T15:45:56;20.60;99.90
6948;DHT22;3513;47.664;9.162;2022-08-20T15:48:30;20.70;99.90
6948;DHT22;3513;47.664;9.162;2022-08-20T15:51:08;20.70;99.90
6948;DHT22;3513;47.664;9.162;2022-08-20T15:54:00;20.60;99.90
6948;DHT22;3513;47.664;9.162;2022-08-20T15:56:49;20.60;99.90
6948;DHT22;3513;47.664;9.162;2022-08-20T16:07:24;20.60;99.90
6948;DHT22;3513;47.664;9.162;2022-08-20T16:12:32;20.70;99.90
6948;DHT22;3513;47.664;9.162;2022-08-20T16:15:08;20.60;99.90
6948;DHT22;3513;47.664;9.162;2022-08-20T16:17:48;20.60;99.90
6948;DHT22;3513;47.664;9.162;2022-08-20T16:20:30;20.60;99.90
6948;DHT22;3513;47.664;9.162;2022-08-20T16:22:58;20.60;99.90
6948;DHT22;3513;47.664;9.162;2022-08-20T16:25:30;20.70;99.90